sensor_id;sensor_type;location;lat;lon;timestamp;P1;durP1;ratioP1;P2;durP2;ratioP2
63900;SDS011;50538;53.482;10.294;2023-07-29T00:06:42;6.88;;;1.83;;
63900;SDS011;50538;53.482;10.294;2023-07-29T00:16:43;3.15;;;1.70;;
63900;SDS011;50538;53.482;10.294;2023-07-29T00:26:43;3.38;;;1.77;;
63900;SDS011;50538;53.482;10.294;2023-07-29T00:36:43;3.70;;;1.70;;
63900;SDS011;50538;53.482;10.294;2023-07-29T00:46:44;3.83;;;1.85;;
63900;SDS011;50538;53.482;10.294;2023-07-29T00:56:46;4.22;;;1.60;;
63900;SDS011;50538;53.482;10.294;2023-07-29T01:06:50;3.60;;;1.73;;
63900;SDS011;50538;53.482;10.294;2023-07-29T01:17:07;3.00;;;1.60;;
63900;SDS011;50538;53.482;10.294;2023-07-29T01:27:12;3.03;;;1.67;;
63900;SDS011;50538;53.482;10.294;2023-07-29T01:37:13;4.93;;;2.20;;
63900;SDS011;50538;53.482;10.294;2023-07-29T01:47:18;4.90;;;1.80;;
63900;SDS011;50538;53.482;10.294;2023-07-29T01:57:18;3.28;;;1.90;;
63900;SDS011;50538;53.482;10.294;2023-07-29T02:07:19;6.05;;;2.10;;
63900;SDS011;50538;53.482;10.294;2023-07-29T02:17:19;4.53;;;2.13;;
63900;SDS011;50538;53.482;10.294;2023-07-29T02:27:19;4.97;;;2.33;;
63900;SDS011;50538;53.482;10.294;2023-07-29T02:37:20;6.45;;;2.53;;
63900;SDS011;50538;53.482;10.294;2023-07-29T02:47:20;4.00;;;2.08;;
63900;SDS011;50538;53.482;10.294;2023-07-29T02:57:21;4.82;;;2.80;;
63900;SDS011;50538;53.482;10.294;2023-07-29T03:07:21;4.75;;;2.35;;
63900;SDS011;50538;53.482;10.294;2023-07-29T03:17:21;5.20;;;2.45;;
63900;SDS011;50538;53.482;10.294;2023-07-29T03:27:22;3.92;;;2.30;;
63900;SDS011;50538;53.482;10.294;2023-07-29T03:37:22;4.95;;;2.58;;
63900;SDS011;50538;53.482;10.294;2023-07-29T03:47:23;5.38;;;2.40;;
63900;SDS011;50538;53.482;10.294;2023-07-29T03:57:23;6.43;;;2.80;;
63900;SDS011;50538;53.482;10.294;2023-07-29T04:07:23;6.65;;;3.13;;
63900;SDS011;50538;53.482;10.294;2023-07-29T04:17:24;5.28;;;2.80;;
63900;SDS011;50538;53.482;10.294;2023-07-29T04:27:24;6.78;;;3.38;;
63900;SDS011;50538;53.482;10.294;2023-07-29T04:37:24;8.50;;;3.00;;
63900;SDS011;50538;53.482;10.294;2023-07-29T04:47:25;8.88;;;3.20;;
63900;SDS011;50538;53.482;10.294;2023-07-29T04:57:25;7.53;;;3.78;;
63900;SDS011;50538;53.482;10.294;2023-07-29T05:07:26;7.97;;;3.95;;
63900;SDS011;50538;53.482;10.294;2023-07-29T05:17:26;9.38;;;4.47;;
63900;SDS011;50538;53.482;10.294;2023-07-29T05:27:26;10.68;;;4.57;;
63900;SDS011;50538;53.482;10.294;2023-07-29T05:37:27;9.52;;;4.55;;
63900;SDS011;50538;53.482;10.294;2023-07-29T05:47:27;14.15;;;6.20;;
63900;SDS011;50538;53.482;10.294;2023-07-29T05:57:27;12.30;;;6.05;;
63900;SDS011;50538;53.482;10.294;2023-07-29T06:07:28;11.27;;;5.47;;
63900;SDS011;50538;53.482;10.294;2023-07-29T06:17:30;9.25;;;4.55;;
63900;SDS011;50538;53.482;10.294;2023-07-29T06:27:31;10.35;;;4.78;;
63900;SDS011;50538;53.482;10.294;2023-07-29T06:37:31;8.52;;;4.13;;
63900;SDS011;50538;53.482;10.294;2023-07-29T06:47:33;10.60;;;5.30;;
63900;SDS011;50538;53.482;10.294;2023-07-29T06:57:33;9.02;;;4.47;;
63900;SDS011;50538;53.482;10.294;2023-07-29T07:07:34;7.63;;;4.00;;
63900;SDS011;50538;53.482;10.294;2023-07-29T07:17:34;8.40;;;4.32;;
63900;SDS011;50538;53.482;10.294;2023-07-29T07:27:34;9.25;;;4.25;;
63900;SDS011;50538;53.482;10.294;2023-07-29T07:37:36;7.22;;;4.07;;
63900;SDS011;50538;53.482;10.294;2023-07-29T07:47:36;7.53;;;3.53;;
63900;SDS011;50538;53.482;10.294;2023-07-29T07:57:36;5.47;;;3.15;;
63900;SDS011;50538;53.482;10.294;2023-07-29T08:07:37;7.78;;;3.75;;
63900;SDS011;50538;53.482;10.294;2023-07-29T08:17:37;6.47;;;3.33;;
63900;SDS011;50538;53.482;10.294;2023-07-29T08:27:37;5.97;;;3.30;;
63900;SDS011;50538;53.482;10.294;2023-07-29T08:37:38;7.05;;;3.40;;
63900;SDS011;50538;53.482;10.294;2023-07-29T08:47:38;4.70;;;2.80;;
63900;SDS011;50538;53.482;10.294;2023-07-29T08:57:38;4.32;;;2.60;;
63900;SDS011;50538;53.482;10.294;2023-07-29T09:07:39;4.82;;;2.83;;
63900;SDS011;50538;53.482;10.294;2023-07-29T09:17:41;4.80;;;2.57;;
63900;SDS011;50538;53.482;10.294;2023-07-29T09:27:41;5.43;;;2.78;;
63900;SDS011;50538;53.482;10.294;2023-07-29T09:37:43;5.25;;;2.95;;
63900;SDS011;50538;53.482;10.294;2023-07-29T09:47:45;6.32;;;3.20;;
63900;SDS011;50538;53.482;10.294;2023-07-29T09:57:47;4.93;;;2.90;;
63900;SDS011;50538;53.482;10.294;2023-07-29T10:07:47;5.38;;;2.92;;
63900;SDS011;50538;53.482;10.294;2023-07-29T10:17:48;6.13;;;3.03;;
63900;SDS011;50538;53.482;10.294;2023-07-29T10:27:55;6.23;;;3.20;;
63900;SDS011;50538;53.482;10.294;2023-07-29T10:38:01;5.13;;;2.70;;
63900;SDS011;50538;53.482;10.294;2023-07-29T10:48:06;5.17;;;2.53;;
63900;SDS011;50538;53.482;10.294;2023-07-29T10:58:14;5.25;;;3.58;;
63900;SDS011;50538;53.482;10.294;2023-07-29T11:08:22;4.03;;;2.72;;
63900;SDS011;50538;53.482;10.294;2023-07-29T11:18:31;6.25;;;2.53;;
63900;SDS011;50538;53.482;10.294;2023-07-29T11:28:38;4.70;;;1.90;;
63900;SDS011;50538;53.482;10.294;2023-07-29T11:38:40;4.70;;;2.10;;
63900;SDS011;50538;53.482;10.294;2023-07-29T11:48:40;2.65;;;1.60;;
63900;SDS011;50538;53.482;10.294;2023-07-29T11:58:44;3.25;;;1.85;;
63900;SDS011;50538;53.482;10.294;2023-07-29T12:08:44;2.85;;;1.60;;
63900;SDS011;50538;53.482;10.294;2023-07-29T12:18:45;4.38;;;1.85;;
63900;SDS011;50538;53.482;10.294;2023-07-29T12:28:46;3.17;;;2.17;;
63900;SDS011;50538;53.482;10.294;2023-07-29T12:38:47;4.40;;;1.85;;
63900;SDS011;50538;53.482;10.294;2023-07-29T12:48:48;3.75;;;1.95;;
63900;SDS011;50538;53.482;10.294;2023-07-29T12:58:48;2.97;;;1.67;;
63900;SDS011;50538;53.482;10.294;2023-07-29T13:08:48;2.63;;;1.60;;
63900;SDS011;50538;53.482;10.294;2023-07-29T13:18:49;3.10;;;1.57;;
63900;SDS011;50538;53.482;10.294;2023-07-29T13:28:50;2.77;;;1.60;;
63900;SDS011;50538;53.482;10.294;2023-07-29T13:38:50;1.65;;;1.30;;
63900;SDS011;50538;53.482;10.294;2023-07-29T13:48:50;3.38;;;1.40;;
63900;SDS011;50538;53.482;10.294;2023-07-29T13:58:50;2.72;;;1.60;;
63900;SDS011;50538;53.482;10.294;2023-07-29T14:08:51;2.20;;;1.50;;
63900;SDS011;50538;53.482;10.294;2023-07-29T14:18:51;2.08;;;1.60;;
63900;SDS011;50538;53.482;10.294;2023-07-29T14:28:51;3.30;;;1.70;;
63900;SDS011;50538;53.482;10.294;2023-07-29T14:38:52;2.00;;;1.40;;
63900;SDS011;50538;53.482;10.294;2023-07-29T14:48:52;2.42;;;1.60;;
63900;SDS011;50538;53.482;10.294;2023-07-29T14:58:52;2.08;;;1.55;;
63900;SDS011;50538;53.482;10.294;2023-07-29T15:08:53;2.45;;;1.30;;
63900;SDS011;50538;53.482;10.294;2023-07-29T15:18:53;2.65;;;1.20;;
63900;SDS011;50538;53.482;10.294;2023-07-29T15:28:53;1.85;;;1.20;;
63900;SDS011;50538;53.482;10.294;2023-07-29T15:38:54;1.70;;;1.00;;
63900;SDS011;50538;53.482;10.294;2023-07-29T15:48:54;1.88;;;1.17;;
63900;SDS011;50538;53.482;10.294;2023-07-29T15:58:59;2.30;;;1.30;;
63900;SDS011;50538;53.482;10.294;2023-07-29T16:08:59;2.27;;;1.30;;
63900;SDS011;50538;53.482;10.294;2023-07-29T16:19:06;2.50;;;1.42;;
63900;SDS011;50538;53.482;10.294;2023-07-29T16:29:06;2.00;;;1.20;;
63900;SDS011;50538;53.482;10.294;2023-07-29T16:39:07;2.35;;;1.35;;
63900;SDS011;50538;53.482;10.294;2023-07-29T16:49:07;1.95;;;1.08;;
63900;SDS011;50538;53.482;10.294;2023-07-29T16:59:08;5.57;;;0.93;;
63900;SDS011;50538;53.482;10.294;2023-07-29T17:09:08;1.53;;;1.00;;
63900;SDS011;50538;53.482;10.294;2023-07-29T17:19:12;1.08;;;0.90;;
63900;SDS011;50538;53.482;10.294;2023-07-29T17:29:12;2.00;;;1.00;;
63900;SDS011;50538;53.482;10.294;2023-07-29T17:39:12;3.63;;;1.30;;
63900;SDS011;50538;53.482;10.294;2023-07-29T17:49:13;3.50;;;1.88;;
63900;SDS011;50538;53.482;10.294;2023-07-29T17:59:13;2.65;;;1.00;;
63900;SDS011;50538;53.482;10.294;2023-07-29T18:09:13;3.95;;;1.10;;
63900;SDS011;50538;53.482;10.294;2023-07-29T18:19:14;2.83;;;1.08;;
63900;SDS011;50538;53.482;10.294;2023-07-29T18:29:14;1.42;;;0.85;;
63900;SDS011;50538;53.482;10.294;2023-07-29T18:39:14;1.83;;;0.80;;
63900;SDS011;50538;53.482;10.294;2023-07-29T18:49:15;2.13;;;1.20;;
63900;SDS011;50538;53.482;10.294;2023-07-29T18:59:15;3.50;;;1.33;;
63900;SDS011;50538;53.482;10.294;2023-07-29T19:09:18;1.80;;;1.08;;
63900;SDS011;50538;53.482;10.294;2023-07-29T19:19:18;2.55;;;1.50;;
63900;SDS011;50538;53.482;10.294;2023-07-29T19:29:19;1.75;;;0.98;;
63900;SDS011;50538;53.482;10.294;2023-07-29T19:39:19;2.65;;;1.20;;
63900;SDS011;50538;53.482;10.294;2023-07-29T19:49:21;1.45;;;1.00;;
63900;SDS011;50538;53.482;10.294;2023-07-29T19:59:22;1.08;;;0.82;;
63900;SDS011;50538;53.482;10.294;2023-07-29T20:09:22;1.58;;;1.00;;
63900;SDS011;50538;53.482;10.294;2023-07-29T20:19:23;2.57;;;1.20;;
63900;SDS011;50538;53.482;10.294;2023-07-29T20:29:25;1.42;;;0.88;;
63900;SDS011;50538;53.482;10.294;2023-07-29T20:39:26;4.70;;;1.10;;
63900;SDS011;50538;53.482;10.294;2023-07-29T20:49:27;2.55;;;1.23;;
63900;SDS011;50538;53.482;10.294;2023-07-29T20:59:27;2.53;;;1.10;;
63900;SDS011;50538;53.482;10.294;2023-07-29T21:09:27;2.83;;;1.35;;
63900;SDS011;50538;53.482;10.294;2023-07-29T21:19:28;2.47;;;1.40;;
63900;SDS011;50538;53.482;10.294;2023-07-29T21:29:28;4.22;;;1.15;;
63900;SDS011;50538;53.482;10.294;2023-07-29T21:39:28;1.75;;;1.17;;
63900;SDS011;50538;53.482;10.294;2023-07-29T21:49:29;2.55;;;1.25;;
63900;SDS011;50538;53.482;10.294;2023-07-29T21:59:29;3.07;;;1.40;;
63900;SDS011;50538;53.482;10.294;2023-07-29T22:09:30;1.88;;;1.15;;
63900;SDS011;50538;53.482;10.294;2023-07-29T22:19:30;5.35;;;1.40;;
63900;SDS011;50538;53.482;10.294;2023-07-29T22:29:30;3.05;;;1.63;;
63900;SDS011;50538;53.482;10.294;2023-07-29T22:39:31;2.15;;;1.25;;
63900;SDS011;50538;53.482;10.294;2023-07-29T22:49:32;4.43;;;1.10;;
63900;SDS011;50538;53.482;10.294;2023-07-29T22:59:32;3.17;;;1.50;;
63900;SDS011;50538;53.482;10.294;2023-07-29T23:09:32;2.70;;;1.08;;
63900;SDS011;50538;53.482;10.294;2023-07-29T23:19:33;3.08;;;1.23;;
63900;SDS011;50538;53.482;10.294;2023-07-29T23:29:33;3.00;;;1.13;;
63900;SDS011;50538;53.482;10.294;2023-07-29T23:39:33;2.75;;;1.33;;
63900;SDS011;50538;53.482;10.294;2023-07-29T23:49:34;3.88;;;1.27;;
63900;SDS011;50538;53.482;10.294;2023-07-29T23:59:34;3.30;;;1.52;;
